sensor_id;sensor_type;location;lat;lon;timestamp;pressure;altitude;pressure_sealevel;temperature;humidity
596;BME280;19946;49.306;11.350;2023-02-27T00:02:55;96855.66;;;-4.40;100.00
596;BME280;19946;49.306;11.350;2023-02-27T00:07:00;96853.16;;;-4.42;100.00
596;BME280;19946;49.306;11.350;2023-02-27T00:10:04;96711.75;;;-5.31;100.00
596;BME280;19946;49.306;11.350;2023-02-27T00:13:07;96849.03;;;-4.44;100.00
596;BME280;19946;49.306;11.350;2023-02-27T00:16:11;96843.09;;;-4.43;100.00
596;BME280;19946;49.306;11.350;2023-02-27T00:19:55;96697.75;;;-5.48;100.00
596;BME280;19946;49.306;11.350;2023-02-27T00:23:25;96842.31;;;-4.47;100.00
596;BME280;19946;49.306;11.350;2023-02-27T00:26:42;96775.09;;;-4.98;100.00
596;BME280;19946;49.306;11.350;2023-02-27T00:33:10;96834.34;;;-4.70;100.00
596;BME280;19946;49.306;11.350;2023-02-27T00:36:15;96671.97;;;-5.64;100.00
596;BME280;19946;49.306;11.350;2023-02-27T00:39:18;96710.13;;;-5.35;100.00
596;BME280;19946;49.306;11.350;2023-02-27T00:42:19;96836.66;;;-4.58;100.00
596;BME280;19946;49.306;11.350;2023-02-27T00:45:21;96839.03;;;-4.52;100.00
596;BME280;19946;49.306;11.350;2023-02-27T00:48:23;96844.03;;;-4.49;100.00
596;BME280;19946;49.306;11.350;2023-02-27T00:51:24;96713.28;;;-5.24;100.00
596;BME280;19946;49.306;11.350;2023-02-27T00:54:35;96654.97;;;-5.53;100.00
596;BME280;19946;49.306;11.350;2023-02-27T00:57:45;96696.34;;;-5.19;100.00
596;BME280;19946;49.306;11.350;2023-02-27T01:00:53;96656.72;;;-5.58;100.00
596;BME280;19946;49.306;11.350;2023-02-27T01:03:57;96720.81;;;-5.21;100.00
596;BME280;19946;49.306;11.350;2023-02-27T01:07:10;96696.59;;;-5.31;100.00
596;BME280;19946;49.306;11.350;2023-02-27T01:10:30;96853.13;;;-4.40;100.00
596;BME280;19946;49.306;11.350;2023-02-27T01:17:58;96787.22;;;-4.72;100.00
596;BME280;19946;49.306;11.350;2023-02-27T01:21:05;96836.28;;;-4.39;100.00
596;BME280;19946;49.306;11.350;2023-02-27T01:24:13;96795.00;;;-4.82;100.00
596;BME280;19946;49.306;11.350;2023-02-27T01:27:32;96839.00;;;-4.49;100.00
596;BME280;19946;49.306;11.350;2023-02-27T01:31:12;96800.88;;;-4.81;100.00
596;BME280;19946;49.306;11.350;2023-02-27T01:34:43;96748.22;;;-5.02;100.00
596;BME280;19946;49.306;11.350;2023-02-27T01:37:57;96748.41;;;-5.11;100.00
596;BME280;19946;49.306;11.350;2023-02-27T01:41:04;96720.22;;;-5.35;100.00
596;BME280;19946;49.306;11.350;2023-02-27T01:48:19;96788.38;;;-4.87;100.00
596;BME280;19946;49.306;11.350;2023-02-27T01:51:53;96786.84;;;-4.97;100.00
596;BME280;19946;49.306;11.350;2023-02-27T01:54:59;96855.88;;;-4.51;100.00
596;BME280;19946;49.306;11.350;2023-02-27T01:58:21;96790.13;;;-4.92;100.00
596;BME280;19946;49.306;11.350;2023-02-27T02:01:46;96657.78;;;-5.70;100.00
596;BME280;19946;49.306;11.350;2023-02-27T02:04:55;96750.84;;;-5.07;100.00
596;BME280;19946;49.306;11.350;2023-02-27T02:12:35;96801.94;;;-4.93;100.00
596;BME280;19946;49.306;11.350;2023-02-27T02:16:03;96849.19;;;-4.53;100.00
596;BME280;19946;49.306;11.350;2023-02-27T02:44:58;96736.72;;;-5.63;100.00
596;BME280;19946;49.306;11.350;2023-02-27T02:48:14;96799.97;;;-5.25;100.00
596;BME280;19946;49.306;11.350;2023-02-27T02:51:27;96894.34;;;-4.81;100.00
596;BME280;19946;49.306;11.350;2023-02-27T02:54:46;96751.94;;;-5.69;100.00
596;BME280;19946;49.306;11.350;2023-02-27T02:57:57;96746.84;;;-5.65;100.00
596;BME280;19946;49.306;11.350;2023-02-27T03:04:42;96749.50;;;-5.74;100.00
596;BME280;19946;49.306;11.350;2023-02-27T03:07:54;96766.34;;;-5.74;100.00
596;BME280;19946;49.306;11.350;2023-02-27T03:11:01;96681.47;;;-6.28;100.00
596;BME280;19946;49.306;11.350;2023-02-27T03:14:22;96882.00;;;-4.98;100.00
596;BME280;19946;49.306;11.350;2023-02-27T03:18:21;96845.66;;;-5.40;100.00
596;BME280;19946;49.306;11.350;2023-02-27T03:21:09;96815.66;;;-5.57;100.00
596;BME280;19946;49.306;11.350;2023-02-27T03:24:23;96755.84;;;-6.01;100.00
596;BME280;19946;49.306;11.350;2023-02-27T03:27:30;96767.59;;;-6.01;100.00
596;BME280;19946;49.306;11.350;2023-02-27T03:30:44;96898.25;;;-5.12;100.00
596;BME280;19946;49.306;11.350;2023-02-27T03:33:53;96893.41;;;-5.26;100.00
596;BME280;19946;49.306;11.350;2023-02-27T03:46:41;96793.81;;;-6.11;100.00
596;BME280;19946;49.306;11.350;2023-02-27T03:49:46;96928.69;;;-5.22;100.00
596;BME280;19946;49.306;11.350;2023-02-27T03:52:48;96921.09;;;-5.20;100.00
596;BME280;19946;49.306;11.350;2023-02-27T03:55:55;96819.34;;;-5.77;100.00
596;BME280;19946;49.306;11.350;2023-02-27T03:59:42;96805.03;;;-5.77;100.00
596;BME280;19946;49.306;11.350;2023-02-27T04:02:46;96731.00;;;-6.27;100.00
596;BME280;19946;49.306;11.350;2023-02-27T04:05:52;96789.38;;;-5.96;100.00
596;BME280;19946;49.306;11.350;2023-02-27T04:09:05;96829.31;;;-5.70;100.00
596;BME280;19946;49.306;11.350;2023-02-27T04:22:38;96924.28;;;-5.09;100.00
596;BME280;19946;49.306;11.350;2023-02-27T04:26:14;96784.38;;;-5.97;100.00
596;BME280;19946;49.306;11.350;2023-02-27T04:29:22;96839.22;;;-5.59;100.00
596;BME280;19946;49.306;11.350;2023-02-27T04:39:06;96785.94;;;-5.92;100.00
596;BME280;19946;49.306;11.350;2023-02-27T04:42:12;96746.78;;;-6.15;100.00
596;BME280;19946;49.306;11.350;2023-02-27T04:45:17;96930.00;;;-4.98;100.00
596;BME280;19946;49.306;11.350;2023-02-27T04:55:13;96927.56;;;-5.05;100.00
596;BME280;19946;49.306;11.350;2023-02-27T05:01:33;96686.19;;;-6.63;100.00
596;BME280;19946;49.306;11.350;2023-02-27T05:04:37;96793.63;;;-5.99;100.00
596;BME280;19946;49.306;11.350;2023-02-27T05:07:56;96951.34;;;-5.19;100.00
596;BME280;19946;49.306;11.350;2023-02-27T05:11:19;96897.81;;;-5.40;100.00
596;BME280;19946;49.306;11.350;2023-02-27T05:14:39;96943.53;;;-5.03;100.00
596;BME280;19946;49.306;11.350;2023-02-27T05:24:55;96941.19;;;-5.14;100.00
596;BME280;19946;49.306;11.350;2023-02-27T05:28:22;96942.84;;;-5.13;100.00
596;BME280;19946;49.306;11.350;2023-02-27T05:31:53;96765.50;;;-6.30;100.00
596;BME280;19946;49.306;11.350;2023-02-27T05:41:57;96939.59;;;-5.20;100.00
596;BME280;19946;49.306;11.350;2023-02-27T05:45:08;96956.53;;;-5.28;100.00
596;BME280;19946;49.306;11.350;2023-02-27T05:48:20;96878.88;;;-5.67;100.00
596;BME280;19946;49.306;11.350;2023-02-27T05:51:26;96963.22;;;-5.25;100.00
596;BME280;19946;49.306;11.350;2023-02-27T05:54:43;96845.69;;;-5.95;100.00
596;BME280;19946;49.306;11.350;2023-02-27T05:57:56;96968.94;;;-5.12;100.00
596;BME280;19946;49.306;11.350;2023-02-27T13:06:01;96920.47;;;-1.29;76.41
596;BME280;19946;49.306;11.350;2023-02-27T14:12:37;96941.63;;;-1.56;70.82
596;BME280;19946;49.306;11.350;2023-02-27T14:15:50;96879.50;;;-1.44;67.96
596;BME280;19946;49.306;11.350;2023-02-27T14:18:58;96872.84;;;-1.76;69.17
596;BME280;19946;49.306;11.350;2023-02-27T14:22:31;96826.47;;;-2.11;69.82
596;BME280;19946;49.306;11.350;2023-02-27T14:25:37;97022.59;;;-0.87;72.89
596;BME280;19946;49.306;11.350;2023-02-27T14:28:52;96903.16;;;-1.42;72.67
596;BME280;19946;49.306;11.350;2023-02-27T14:31:59;96968.34;;;-1.15;73.86
596;BME280;19946;49.306;11.350;2023-02-27T14:35:05;97014.56;;;-0.75;71.63
596;BME280;19946;49.306;11.350;2023-02-27T14:51:17;97066.84;;;-1.53;87.70
596;BME280;19946;49.306;11.350;2023-02-27T14:54:21;97047.97;;;-1.75;79.21
596;BME280;19946;49.306;11.350;2023-02-27T14:57:24;96962.09;;;-2.23;83.60
596;BME280;19946;49.306;11.350;2023-02-27T15:03:40;97040.03;;;-1.63;84.22
596;BME280;19946;49.306;11.350;2023-02-27T15:36:20;96967.97;;;-2.53;84.03
596;BME280;19946;49.306;11.350;2023-02-27T15:39:28;96931.66;;;-2.89;90.50
596;BME280;19946;49.306;11.350;2023-02-27T15:42:32;96954.50;;;-2.90;89.94
596;BME280;19946;49.306;11.350;2023-02-27T15:45:36;97079.34;;;-2.10;90.84
596;BME280;19946;49.306;11.350;2023-02-27T15:48:37;96869.53;;;-3.39;85.45
596;BME280;19946;49.306;11.350;2023-02-27T15:51:38;96912.75;;;-3.11;84.23
596;BME280;19946;49.306;11.350;2023-02-27T17:03:41;97142.44;;;-2.70;95.03
596;BME280;19946;49.306;11.350;2023-02-27T17:26:29;96955.38;;;-4.10;88.16
596;BME280;19946;49.306;11.350;2023-02-27T17:29:35;96931.84;;;-4.12;87.71
596;BME280;19946;49.306;11.350;2023-02-27T17:32:43;97149.63;;;-2.90;91.58
596;BME280;19946;49.306;11.350;2023-02-27T17:45:38;97021.56;;;-3.88;94.37
596;BME280;19946;49.306;11.350;2023-02-27T17:48:40;97120.69;;;-3.20;94.90
596;BME280;19946;49.306;11.350;2023-02-27T17:58:30;97164.06;;;-2.92;95.34
596;BME280;19946;49.306;11.350;2023-02-27T18:01:31;96948.16;;;-4.30;95.78
596;BME280;19946;49.306;11.350;2023-02-27T18:04:33;97025.56;;;-3.77;95.74
596;BME280;19946;49.306;11.350;2023-02-27T18:07:33;97039.25;;;-3.87;99.45
596;BME280;19946;49.306;11.350;2023-02-27T18:10:34;97061.84;;;-3.76;99.36
596;BME280;19946;49.306;11.350;2023-02-27T18:13:39;96961.88;;;-4.42;96.70
596;BME280;19946;49.306;11.350;2023-02-27T18:16:44;97172.03;;;-3.12;99.26
596;BME280;19946;49.306;11.350;2023-02-27T18:19:47;97043.63;;;-3.95;95.61
596;BME280;19946;49.306;11.350;2023-02-27T18:22:49;97181.22;;;-3.07;97.70
596;BME280;19946;49.306;11.350;2023-02-27T18:25:55;97184.78;;;-3.17;98.26
596;BME280;19946;49.306;11.350;2023-02-27T18:29:10;97070.44;;;-3.85;99.64
596;BME280;19946;49.306;11.350;2023-02-27T18:32:14;97131.44;;;-3.52;100.00
596;BME280;19946;49.306;11.350;2023-02-27T20:05:41;97073.75;;;-4.30;100.00
596;BME280;19946;49.306;11.350;2023-02-27T20:08:45;97086.22;;;-4.20;100.00
596;BME280;19946;49.306;11.350;2023-02-27T21:40:34;97064.59;;;-4.91;100.00
596;BME280;19946;49.306;11.350;2023-02-27T21:43:39;97194.72;;;-4.03;100.00
596;BME280;19946;49.306;11.350;2023-02-27T21:59:54;97034.25;;;-4.88;100.00
596;BME280;19946;49.306;11.350;2023-02-27T22:02:56;97161.22;;;-4.17;100.00
596;BME280;19946;49.306;11.350;2023-02-27T22:05:58;97028.72;;;-5.15;100.00
596;BME280;19946;49.306;11.350;2023-02-27T22:09:16;97026.09;;;-5.07;100.00
596;BME280;19946;49.306;11.350;2023-02-27T22:12:20;97172.50;;;-4.38;100.00
596;BME280;19946;49.306;11.350;2023-02-27T22:15:25;97098.94;;;-4.76;100.00
596;BME280;19946;49.306;11.350;2023-02-27T22:18:29;97015.34;;;-5.20;100.00
596;BME280;19946;49.306;11.350;2023-02-27T22:21:30;97161.50;;;-4.35;100.00
596;BME280;19946;49.306;11.350;2023-02-27T22:24:31;97159.00;;;-4.37;100.00
596;BME280;19946;49.306;11.350;2023-02-27T22:27:32;97053.97;;;-5.15;100.00
596;BME280;19946;49.306;11.350;2023-02-27T23:26:23;97129.88;;;-4.64;100.00
596;BME280;19946;49.306;11.350;2023-02-27T23:29:27;96998.00;;;-5.45;100.00
596;BME280;19946;49.306;11.350;2023-02-27T23:32:28;97152.25;;;-4.36;100.00
596;BME280;19946;49.306;11.350;2023-02-27T23:35:36;97152.31;;;-4.43;100.00
596;BME280;19946;49.306;11.350;2023-02-27T23:41:54;96997.75;;;-5.27;100.00
596;BME280;19946;49.306;11.350;2023-02-27T23:44:56;97104.69;;;-4.67;100.00
596;BME280;19946;49.306;11.350;2023-02-27T23:48:32;97000.13;;;-5.15;100.00
596;BME280;19946;49.306;11.350;2023-02-27T23:51:35;96941.09;;;-5.66;100.00
596;BME280;19946;49.306;11.350;2023-02-27T23:54:36;96982.03;;;-5.46;100.00
596;BME280;19946;49.306;11.350;2023-02-27T23:57:39;97143.81;;;-4.35;100.00
